Gillette, WY (82716)

3:48 PM MST on February 24, 2017 (GMT -0700)
Westover | | Change Station

Elev 4757 ft 44.28 °N, 105.55 °W | Updated 7 seconds ago

Overcast
Overcast
25.0 °F
Feels Like 14 °F
N
12.8
Wind Variable Wind from South
Gusts 15.0 mph

Today
High -- | Low -- °F
--% Chance of Precip.
Yesterday
High -- | Low -- °F
Precip. -- in
Pressure 30.08 in
Visibility 10.0 miles
Clouds Few 2100 ft
Overcast 4900 ft
Windchill 14 °F
Dew Point 18 °F
Humidity 74%
Rainfall 0.00 in
Snow Depth Not available.
6:47 AM 5:43 PM
Waning Crescent, 3% visible
METAR KGCC 242153Z AUTO 19010KT 10SM FEW021 OVC049 M03/M06 A2996 RMK AO2 SLP184 T10281061
Pressure 30.08 in
Visibility 10.0 miles
Clouds Few 2100 ft
Overcast 4900 ft
Windchill 14 °F
Dew Point 18 °F
Humidity 74%
Rainfall 0.00 in
Snow Depth Not available.
6:47 AM 5:43 PM
Waning Crescent, 3% visible
METAR KGCC 242153Z AUTO 19010KT 10SM FEW021 OVC049 M03/M06 A2996 RMK AO2 SLP184 T10281061

Get Your Daily Forecast Email!

Thanks for signing up!

Be on the lookout for a verification email in your inbox.

You'll start receiving the daily forecast at 8 AM.

×

10-Day Weather Forecast

Almanac

Astronomy

Feb. 24, 2017 Rise Set
Actual Time
Civil Twilight
Nautical Twilight
Astronomical Twilight
Moon
Length of Visible Light
Length of Day
Tomorrow will be .
, % of the Moon is Illuminated

Today's Extremes

State Highs State Lows

Community

WunderPhotos

Upload Photos

1,962,540 photos uploaded!

WunderBlog® & News

Nearby

Air Quality

  Air Quality AQ Index Pollutant
Not available.

Snow Depth

Station Depth Elevation

Earthquake Activity

City Distance Mag. Time & Date
Minimum magnitude displayed is 2.5.

Coastal Water Temperatures

Place Temperature

Stations

Nearby Weather Stations

Station Location Temp. Windchill Dew Point Humidity Wind Precip. Elev Updated Type
                   

Watches & Warnings

There are currently no watches in effect.